createdAt,value
2023-01-19T00:01:10.903Z,1.45
2023-01-19T00:03:41.018Z,1.46
2023-01-19T00:06:12.100Z,1.50
2023-01-19T00:08:44.778Z,1.49
2023-01-19T00:11:17.591Z,1.49
2023-01-19T00:13:50.658Z,1.49
2023-01-19T00:16:23.310Z,1.40
2023-01-19T00:18:55.756Z,1.33
2023-01-19T00:21:25.877Z,1.31
2023-01-19T00:23:55.910Z,1.19
2023-01-19T00:26:28.433Z,1.15
2023-01-19T00:29:04.830Z,1.11
2023-01-19T00:31:34.961Z,1.09
2023-01-19T00:34:05.152Z,1.12
2023-01-19T00:36:35.422Z,1.16
2023-01-19T00:39:05.562Z,1.06
2023-01-19T00:41:50.702Z,1.00
2023-01-19T00:44:20.853Z,0.94
2023-01-19T00:46:50.822Z,0.94
2023-01-19T00:49:20.879Z,0.88
2023-01-19T00:51:50.861Z,0.87
2023-01-19T00:54:21.184Z,0.83
2023-01-19T00:56:54.229Z,0.83
2023-01-19T00:59:25.837Z,0.81
2023-01-19T01:01:56.036Z,0.80
2023-01-19T01:04:26.383Z,0.76
2023-01-19T01:06:56.403Z,0.78
2023-01-19T01:09:26.467Z,0.80
2023-01-19T01:12:00.561Z,0.82
2023-01-19T01:14:30.819Z,0.82
2023-01-19T01:17:03.723Z,0.86
2023-01-19T01:19:33.778Z,0.82
2023-01-19T01:22:03.945Z,0.84
2023-01-19T01:24:33.987Z,0.85
2023-01-19T01:27:07.291Z,0.84
2023-01-19T01:29:46.540Z,0.80
2023-01-19T01:32:16.861Z,0.81
2023-01-19T01:34:46.839Z,0.82
2023-01-19T01:37:16.789Z,0.82
2023-01-19T01:39:46.811Z,0.75
2023-01-19T01:42:22.071Z,0.72
2023-01-19T01:44:55.537Z,0.68
2023-01-19T01:47:32.642Z,0.60
2023-01-19T01:50:13.850Z,0.57
2023-01-19T01:53:07.656Z,0.57
2023-01-19T01:55:43.052Z,0.56
2023-01-19T01:58:17.886Z,0.51
2023-01-19T02:01:00.330Z,0.47
2023-01-19T02:03:32.676Z,0.50
2023-01-19T02:06:08.270Z,0.46
2023-01-19T02:08:57.386Z,0.57
2023-01-19T02:11:40.443Z,0.58
2023-01-19T02:14:13.295Z,0.56
2023-01-19T02:16:43.549Z,0.51
2023-01-19T02:19:19.841Z,0.52
2023-01-19T02:21:56.008Z,0.48
2023-01-19T02:24:29.457Z,0.40
2023-01-19T02:27:00.778Z,0.32
2023-01-19T02:29:31.909Z,0.25
2023-01-19T02:32:03.265Z,0.20
2023-01-19T02:34:33.526Z,0.10
2023-01-19T02:37:07.708Z,0.08
2023-01-19T02:39:45.893Z,-0.01
2023-01-19T02:42:22.327Z,0.04
2023-01-19T02:44:55.640Z,0.11
2023-01-19T02:47:26.097Z,0.08
2023-01-19T02:49:59.481Z,0.06
2023-01-19T02:52:30.588Z,0.00
2023-01-19T02:55:18.220Z,-0.04
2023-01-19T02:57:58.964Z,-0.01
2023-01-19T03:00:40.093Z,-0.13
2023-01-19T03:03:30.866Z,-0.14
2023-01-19T03:06:28.707Z,-0.18
2023-01-19T03:09:05.014Z,-0.20
2023-01-19T03:11:42.965Z,-0.18
2023-01-19T03:14:19.566Z,-0.19
2023-01-19T03:16:55.159Z,-0.19
2023-01-19T03:19:27.716Z,-0.21
2023-01-19T03:22:01.584Z,-0.18
2023-01-19T03:24:37.819Z,-0.20
2023-01-19T03:27:15.106Z,-0.18
2023-01-19T03:29:50.952Z,-0.14
2023-01-19T03:32:25.094Z,-0.19
2023-01-19T03:34:57.487Z,-0.27
2023-01-19T03:37:30.215Z,-0.37
2023-01-19T03:40:00.698Z,-0.41
2023-01-19T03:42:33.604Z,-0.43
2023-01-19T03:45:04.592Z,-0.47
2023-01-19T03:47:35.394Z,-0.50
2023-01-19T03:50:10.095Z,-0.53
2023-01-19T03:52:40.068Z,-0.52
2023-01-19T03:55:10.476Z,-0.48
2023-01-19T03:57:43.143Z,-0.42
2023-01-19T04:00:15.489Z,-0.43
2023-01-19T04:02:45.506Z,-0.37
2023-01-19T04:05:15.598Z,-0.27
2023-01-19T04:07:45.843Z,-0.29
2023-01-19T04:10:16.384Z,-0.30
2023-01-19T04:12:49.243Z,-0.35
2023-01-19T04:15:19.577Z,-0.37
2023-01-19T04:17:50.851Z,-0.38
2023-01-19T04:20:21.788Z,-0.42
2023-01-19T04:22:51.946Z,-0.43
2023-01-19T04:25:22.005Z,-0.49
2023-01-19T04:27:58.466Z,-0.50
2023-01-19T04:30:28.686Z,-0.44
2023-01-19T04:32:59.027Z,-0.47
2023-01-19T04:35:29.271Z,-0.51
2023-01-19T04:37:59.375Z,-0.55
2023-01-19T04:40:29.420Z,-0.61
2023-01-19T04:43:02.340Z,-0.75
2023-01-19T04:45:32.737Z,-0.75
2023-01-19T04:48:04.238Z,-0.74
2023-01-19T04:50:34.890Z,-0.81
2023-01-19T04:53:04.835Z,-0.81
2023-01-19T04:55:34.799Z,-0.81
2023-01-19T04:58:07.491Z,-0.76
2023-01-19T05:00:37.660Z,-0.75
2023-01-19T05:03:07.689Z,-0.76
2023-01-19T05:05:37.956Z,-0.80
2023-01-19T05:08:08.392Z,-0.77
2023-01-19T05:10:39.171Z,-0.73
2023-01-19T05:13:11.718Z,-0.69
2023-01-19T05:15:52.145Z,-0.77
2023-01-19T05:18:22.147Z,-0.77
2023-01-19T05:20:52.076Z,-0.74
2023-01-19T05:23:32.810Z,-0.65
2023-01-19T05:26:03.858Z,-0.54
2023-01-19T05:28:37.262Z,-0.54
2023-01-19T05:31:07.491Z,-0.52
2023-01-19T05:33:37.473Z,-0.45
2023-01-19T05:36:07.641Z,-0.51
2023-01-19T05:38:37.670Z,-0.59
2023-01-19T05:41:08.133Z,-0.68
2023-01-19T05:43:41.007Z,-0.67
2023-01-19T05:46:15.462Z,-0.67
2023-01-19T05:48:45.497Z,-0.70
2023-01-19T05:51:15.500Z,-0.76
2023-01-19T05:53:45.616Z,-0.74
2023-01-19T05:56:15.593Z,-0.84
2023-01-19T05:58:48.174Z,-0.78
2023-01-19T06:01:18.378Z,-0.77
2023-01-19T06:03:48.791Z,-0.78
2023-01-19T06:06:19.010Z,-0.78
2023-01-19T06:08:49.069Z,-0.75
2023-01-19T06:11:19.150Z,-0.74
2023-01-19T06:13:51.643Z,-0.75
2023-01-19T06:16:21.609Z,-0.80
2023-01-19T06:18:51.621Z,-0.81
2023-01-19T06:21:21.570Z,-0.90
2023-01-19T06:23:51.567Z,-0.95
2023-01-19T06:26:21.524Z,-1.00
2023-01-19T06:28:54.403Z,-0.97
2023-01-19T06:31:24.390Z,-1.00
2023-01-19T06:33:54.437Z,-0.98
2023-01-19T06:36:24.400Z,-0.94
2023-01-19T06:38:54.294Z,-0.92
2023-01-19T06:41:24.298Z,-0.89
2023-01-19T06:43:57.067Z,-0.86
2023-01-19T06:46:27.512Z,-0.81
2023-01-19T06:48:57.857Z,-0.75
2023-01-19T06:51:28.152Z,-0.77
2023-01-19T06:53:58.323Z,-0.86
2023-01-19T06:56:28.419Z,-0.80
2023-01-19T06:59:01.394Z,-0.78
2023-01-19T07:01:32.903Z,-0.78
2023-01-19T07:04:02.850Z,-0.76
2023-01-19T07:06:32.814Z,-0.78
2023-01-19T07:09:07.133Z,-0.79
2023-01-19T07:11:37.135Z,-0.82
2023-01-19T07:14:09.799Z,-0.85
2023-01-19T07:16:39.890Z,-0.87
2023-01-19T07:19:10.814Z,-0.96
2023-01-19T07:21:40.911Z,-0.96
2023-01-19T07:24:11.234Z,-0.94
2023-01-19T07:26:41.279Z,-0.97
2023-01-19T07:29:13.904Z,-0.84
2023-01-19T07:31:43.948Z,-0.82
2023-01-19T07:34:13.967Z,-0.81
2023-01-19T07:36:44.230Z,-0.78
2023-01-19T07:39:14.395Z,-0.72
2023-01-19T07:41:44.442Z,-0.65
2023-01-19T07:44:17.006Z,-0.74
2023-01-19T07:51:13.073Z,0.13
2023-01-19T08:00:25.494Z,2.40
2023-01-19T08:03:01.872Z,2.92
2023-01-19T08:05:32.683Z,3.35
2023-01-19T08:08:05.161Z,3.86
2023-01-19T08:10:35.384Z,4.12
2023-01-19T08:13:08.685Z,4.27
2023-01-19T08:15:41.468Z,4.46
2023-01-19T08:18:18.043Z,4.66
2023-01-19T08:20:52.517Z,4.94
2023-01-19T08:23:22.442Z,5.22
2023-01-19T08:25:52.435Z,5.14
2023-01-19T08:28:26.543Z,5.38
2023-01-19T08:31:18.326Z,5.85
2023-01-19T08:33:49.769Z,6.36
2023-01-19T08:36:19.826Z,6.56
2023-01-19T08:38:50.458Z,6.75
2023-01-19T08:41:20.571Z,7.06
2023-01-19T08:43:50.980Z,7.06
2023-01-19T08:46:23.559Z,7.05
2023-01-19T08:48:53.547Z,6.86
2023-01-19T08:51:23.722Z,6.54
2023-01-19T08:53:53.769Z,6.43
2023-01-19T08:56:23.782Z,6.38
2023-01-19T08:59:08.261Z,6.68
2023-01-19T09:01:42.139Z,6.93
2023-01-19T09:04:12.400Z,7.38
2023-01-19T09:06:42.531Z,7.72
2023-01-19T09:09:12.758Z,7.71
2023-01-19T09:11:42.743Z,7.60
2023-01-19T09:14:12.932Z,7.42
2023-01-19T09:16:45.669Z,6.90
2023-01-19T09:19:15.613Z,6.92
2023-01-19T09:21:45.672Z,7.06
2023-01-19T09:24:15.586Z,7.40
2023-01-19T09:26:45.584Z,7.44
2023-01-19T09:29:15.602Z,7.47
2023-01-19T09:31:48.911Z,7.77
2023-01-19T09:34:19.368Z,7.91
2023-01-19T09:36:50.075Z,8.16
2023-01-19T09:39:20.435Z,8.56
2023-01-19T09:42:06.062Z,8.91
2023-01-19T09:44:41.210Z,9.00
2023-01-19T09:47:22.951Z,9.11
2023-01-19T09:49:58.432Z,9.27
2023-01-19T09:52:28.521Z,9.33
2023-01-19T09:54:59.807Z,9.31
2023-01-19T09:57:32.284Z,9.25
2023-01-19T10:00:02.260Z,9.54
2023-01-19T10:02:49.660Z,10.14
2023-01-19T10:05:31.695Z,10.20
2023-01-19T10:08:21.518Z,10.22
2023-01-19T10:10:59.588Z,10.36
2023-01-19T10:13:40.407Z,10.50
2023-01-19T10:16:24.312Z,10.21
2023-01-19T10:19:00.788Z,10.29
2023-01-19T10:21:34.453Z,10.64
2023-01-19T10:24:09.608Z,10.93
2023-01-19T10:26:45.330Z,11.49
2023-01-19T10:29:24.905Z,11.76
2023-01-19T10:31:55.276Z,12.26
2023-01-19T10:34:27.879Z,12.53
2023-01-19T10:37:07.231Z,12.47
2023-01-19T10:39:38.782Z,12.72
2023-01-19T10:42:09.391Z,12.95
2023-01-19T10:44:41.431Z,13.55
2023-01-19T10:47:19.411Z,14.06
2023-01-19T10:49:52.430Z,14.39
2023-01-19T10:52:28.895Z,14.56
2023-01-19T10:55:00.176Z,14.70
2023-01-19T10:57:34.537Z,14.77
2023-01-19T11:00:05.049Z,14.88
2023-01-19T11:02:36.172Z,15.05
2023-01-19T11:05:27.257Z,14.73
2023-01-19T11:07:57.315Z,14.77
2023-01-19T11:10:30.147Z,14.74
2023-01-19T11:13:07.662Z,15.06
2023-01-19T11:15:44.504Z,15.50
2023-01-19T11:18:27.049Z,16.00
2023-01-19T11:21:02.689Z,16.03
2023-01-19T11:23:37.653Z,15.45
2023-01-19T11:26:09.119Z,15.18
2023-01-19T11:28:45.040Z,14.88
2023-01-19T11:31:35.248Z,15.08
2023-01-19T11:34:07.056Z,15.18
2023-01-19T11:36:39.977Z,15.11
2023-01-19T11:39:24.920Z,15.41
2023-01-19T11:41:57.612Z,15.51
2023-01-19T11:44:32.431Z,15.58
2023-01-19T11:47:17.852Z,16.14
2023-01-19T11:50:03.454Z,16.90
2023-01-19T11:52:43.444Z,17.31
2023-01-19T11:55:22.768Z,17.60
2023-01-19T11:57:56.045Z,17.66
2023-01-19T12:00:29.367Z,17.64
2023-01-19T12:03:06.099Z,17.96
2023-01-19T12:05:48.283Z,17.42
2023-01-19T12:08:27.155Z,17.25
2023-01-19T12:11:03.075Z,17.37
2023-01-19T12:13:34.704Z,17.35
2023-01-19T12:16:09.997Z,17.44
2023-01-19T12:18:43.448Z,17.49
2023-01-19T12:21:15.549Z,17.22
2023-01-19T12:23:59.192Z,16.83
2023-01-19T12:26:33.856Z,16.79
2023-01-19T12:29:13.838Z,17.18
2023-01-19T12:31:45.630Z,17.42
2023-01-19T12:34:46.713Z,16.80
2023-01-19T12:37:43.968Z,16.48
2023-01-19T12:40:35.719Z,16.43
2023-01-19T12:43:08.852Z,16.11
2023-01-19T12:45:40.168Z,15.52
2023-01-19T12:48:27.616Z,15.42
2023-01-19T12:50:57.593Z,14.82
2023-01-19T12:53:27.695Z,13.61
2023-01-19T12:56:10.118Z,12.93
2023-01-19T12:58:40.269Z,12.67
2023-01-19T13:01:21.107Z,12.88
2023-01-19T13:04:06.745Z,12.38
2023-01-19T13:07:10.360Z,12.31
2023-01-19T13:09:43.284Z,12.18
2023-01-19T13:12:23.152Z,11.87
2023-01-19T13:14:53.516Z,11.59
2023-01-19T13:17:33.178Z,12.51
2023-01-19T13:20:07.912Z,13.11
2023-01-19T13:22:53.735Z,12.42
2023-01-19T13:25:36.704Z,12.55
2023-01-19T13:28:13.560Z,12.26
2023-01-19T13:31:03.907Z,12.08
2023-01-19T13:33:45.197Z,12.87
2023-01-19T13:36:32.605Z,12.46
2023-01-19T13:39:06.743Z,11.31
2023-01-19T13:41:41.827Z,10.65
2023-01-19T13:44:20.204Z,10.10
2023-01-19T13:46:50.787Z,8.90
2023-01-19T13:49:24.114Z,8.42
2023-01-19T13:52:08.221Z,8.14
2023-01-19T13:54:38.245Z,8.06
2023-01-19T13:57:08.237Z,7.96
2023-01-19T13:59:40.977Z,8.34
2023-01-19T14:02:16.929Z,8.70
2023-01-19T14:04:47.149Z,8.97
2023-01-19T14:07:26.457Z,8.48
2023-01-19T14:10:07.305Z,7.58
2023-01-19T14:12:45.583Z,6.79
2023-01-19T14:15:23.952Z,5.97
2023-01-19T14:18:25.194Z,5.81
2023-01-19T14:20:57.055Z,5.91
2023-01-19T14:23:41.988Z,6.49
2023-01-19T14:26:52.046Z,6.72
2023-01-19T14:29:26.515Z,6.33
2023-01-19T14:32:09.972Z,6.41
2023-01-19T14:34:42.024Z,6.05
2023-01-19T14:37:29.804Z,5.66
2023-01-19T14:40:04.847Z,5.34
2023-01-19T14:42:37.703Z,5.43
2023-01-19T14:45:21.316Z,5.96
2023-01-19T14:48:01.187Z,6.22
2023-01-19T14:50:35.422Z,6.11
2023-01-19T14:53:07.587Z,5.63
2023-01-19T14:55:41.396Z,5.33
2023-01-19T14:58:13.934Z,4.74
2023-01-19T15:00:43.980Z,4.19
2023-01-19T15:03:16.707Z,4.01
2023-01-19T15:05:49.548Z,3.91
2023-01-19T15:08:22.887Z,3.87
2023-01-19T15:10:52.934Z,3.72
2023-01-19T15:13:25.472Z,3.66
2023-01-19T15:15:55.784Z,3.68
2023-01-19T15:18:30.279Z,3.70
2023-01-19T15:21:02.892Z,3.67
2023-01-19T15:23:32.965Z,3.57
2023-01-19T15:26:04.075Z,3.56
2023-01-19T15:28:34.427Z,3.45
2023-01-19T15:31:04.447Z,3.39
2023-01-19T15:33:37.314Z,3.39
2023-01-19T15:36:08.400Z,3.37
2023-01-19T15:38:38.548Z,3.37
2023-01-19T15:41:15.122Z,3.35
2023-01-19T15:43:45.117Z,3.32
2023-01-19T15:46:17.480Z,3.35
2023-01-19T15:48:50.391Z,3.34
2023-01-19T15:51:22.235Z,3.32
2023-01-19T15:53:52.996Z,3.37
2023-01-19T15:56:27.670Z,3.32
2023-01-19T15:58:58.730Z,3.18
2023-01-19T16:01:32.762Z,3.13
2023-01-19T16:04:07.298Z,3.19
2023-01-19T16:06:37.245Z,3.14
2023-01-19T16:09:07.773Z,3.02
2023-01-19T16:11:38.399Z,3.01
2023-01-19T16:14:08.466Z,3.10
2023-01-19T16:16:38.707Z,3.13
2023-01-19T16:19:11.376Z,3.10
2023-01-19T16:21:41.371Z,3.07
2023-01-19T16:24:11.552Z,3.02
2023-01-19T16:26:41.543Z,3.00
2023-01-19T16:29:12.161Z,2.93
2023-01-19T16:31:45.561Z,2.86
2023-01-19T16:34:18.277Z,2.89
2023-01-19T16:36:48.333Z,2.83
2023-01-19T16:39:33.738Z,2.78
2023-01-19T16:42:04.013Z,2.73
2023-01-19T16:44:33.951Z,2.71
2023-01-19T16:47:04.289Z,2.69
2023-01-19T16:49:37.036Z,2.67
2023-01-19T16:52:07.330Z,2.72
2023-01-19T16:54:39.416Z,2.74
2023-01-19T16:57:09.471Z,2.64
2023-01-19T16:59:40.047Z,2.68
2023-01-19T17:02:11.098Z,2.75
2023-01-19T17:04:43.754Z,2.78
2023-01-19T17:07:19.388Z,2.75
2023-01-19T17:09:49.537Z,2.79
2023-01-19T17:12:19.481Z,2.73
2023-01-19T17:14:52.674Z,2.75
2023-01-19T17:17:22.867Z,2.85
2023-01-19T17:19:55.653Z,2.91
2023-01-19T17:22:25.684Z,2.89
2023-01-19T17:24:55.709Z,2.87
2023-01-19T17:27:26.162Z,2.92
2023-01-19T17:29:59.721Z,2.88
2023-01-19T17:32:30.808Z,3.01
2023-01-19T17:35:04.521Z,3.14
2023-01-19T17:37:34.527Z,3.21
2023-01-19T17:40:04.574Z,3.32
2023-01-19T17:42:42.518Z,3.38
2023-01-19T17:45:27.783Z,3.32
2023-01-19T17:47:57.821Z,3.31
2023-01-19T17:50:30.428Z,3.27
2023-01-19T17:53:00.421Z,3.22
2023-01-19T17:55:30.479Z,3.17
2023-01-19T17:58:03.672Z,3.34
2023-01-19T18:00:33.686Z,3.39
2023-01-19T18:03:03.898Z,3.47
2023-01-19T18:05:36.572Z,3.57
2023-01-19T18:08:10.272Z,3.54
2023-01-19T18:10:40.946Z,3.49
2023-01-19T18:13:11.051Z,3.39
2023-01-19T18:15:42.728Z,3.28
2023-01-19T18:18:12.774Z,3.22
2023-01-19T18:20:45.845Z,3.15
2023-01-19T18:23:16.138Z,3.13
2023-01-19T18:25:48.606Z,3.14
2023-01-19T18:28:18.614Z,3.25
2023-01-19T18:30:49.178Z,3.35
2023-01-19T18:33:19.343Z,3.40
2023-01-19T18:35:54.981Z,3.40
2023-01-19T18:38:27.402Z,3.41
2023-01-19T18:41:04.190Z,3.35
2023-01-19T18:43:34.643Z,3.32
2023-01-19T18:46:05.450Z,3.44
2023-01-19T18:48:42.946Z,3.57
2023-01-19T18:51:17.623Z,3.57
2023-01-19T18:53:48.868Z,3.65
2023-01-19T18:56:20.226Z,3.67
2023-01-19T18:58:50.464Z,3.58
2023-01-19T19:01:23.629Z,3.59
2023-01-19T19:03:56.179Z,3.50
2023-01-19T19:06:31.913Z,3.46
2023-01-19T19:09:02.040Z,3.43
2023-01-19T19:11:32.234Z,3.54
2023-01-19T19:14:07.426Z,3.59
2023-01-19T19:16:39.483Z,3.57
2023-01-19T19:19:11.952Z,3.57
2023-01-19T19:21:46.926Z,3.49
2023-01-19T19:24:19.922Z,3.42
2023-01-19T19:26:55.156Z,3.33
2023-01-19T19:29:26.252Z,3.22
2023-01-19T19:31:56.997Z,3.15
2023-01-19T19:34:27.968Z,3.27
2023-01-19T19:37:01.407Z,3.38
2023-01-19T19:39:34.267Z,3.48
2023-01-19T19:42:05.892Z,3.50
2023-01-19T19:44:36.154Z,3.51
2023-01-19T19:47:06.194Z,3.56
2023-01-19T19:49:39.172Z,3.57
2023-01-19T19:52:14.001Z,3.62
2023-01-19T19:54:49.057Z,3.61
2023-01-19T19:57:18.959Z,3.59
2023-01-19T19:59:51.704Z,3.59
2023-01-19T20:02:23.302Z,3.55
2023-01-19T20:04:53.231Z,3.52
2023-01-19T20:07:25.804Z,3.52
2023-01-19T20:09:56.187Z,3.59
2023-01-19T20:12:26.247Z,3.69
2023-01-19T20:14:56.174Z,3.78
2023-01-19T20:17:26.347Z,3.92
2023-01-19T20:19:56.340Z,3.92
2023-01-19T20:22:29.025Z,3.95
2023-01-19T20:24:59.196Z,3.94
2023-01-19T20:27:29.288Z,3.87
2023-01-19T20:30:00.389Z,3.78
2023-01-19T20:32:30.334Z,3.71
2023-01-19T20:35:00.289Z,3.72
2023-01-19T20:37:32.876Z,3.73
2023-01-19T20:40:02.798Z,3.71
2023-01-19T20:42:32.768Z,3.67
2023-01-19T20:45:02.774Z,3.70
2023-01-19T20:47:32.899Z,3.67
2023-01-19T20:50:02.949Z,3.68
2023-01-19T20:52:37.471Z,3.70
2023-01-19T20:55:08.938Z,3.71
2023-01-19T20:57:38.918Z,3.79
2023-01-19T21:00:10.256Z,3.80
2023-01-19T21:02:40.381Z,3.94
2023-01-19T21:05:12.236Z,3.92
2023-01-19T21:07:45.111Z,3.91
2023-01-19T21:10:16.362Z,3.97
2023-01-19T21:12:46.650Z,3.97
2023-01-19T21:15:18.064Z,3.95
2023-01-19T21:17:47.984Z,3.91
2023-01-19T21:20:18.207Z,3.98
2023-01-19T21:22:50.839Z,4.00
2023-01-19T21:25:20.971Z,4.05
2023-01-19T21:27:50.955Z,4.07
2023-01-19T21:30:23.898Z,4.14
2023-01-19T21:32:53.892Z,4.08
2023-01-19T21:35:26.682Z,4.00
2023-01-19T21:38:00.638Z,4.00
2023-01-19T21:40:30.941Z,3.98
2023-01-19T21:43:01.161Z,3.87
2023-01-19T21:45:31.355Z,3.88
2023-01-19T21:48:01.387Z,4.00
2023-01-19T21:50:31.842Z,4.04
2023-01-19T21:53:06.023Z,4.07
2023-01-19T21:55:36.786Z,4.08
2023-01-19T21:58:07.479Z,4.22
2023-01-19T22:00:37.502Z,4.29
2023-01-19T22:03:09.315Z,4.30
2023-01-19T22:05:40.084Z,4.36
2023-01-19T22:08:13.052Z,4.32
2023-01-19T22:10:43.011Z,4.35
2023-01-19T22:13:13.034Z,4.43
2023-01-19T22:15:43.107Z,4.51
2023-01-19T22:18:13.313Z,4.60
2023-01-19T22:20:43.424Z,4.49
2023-01-19T22:23:16.130Z,4.40
2023-01-19T22:25:46.224Z,4.35
2023-01-19T22:28:16.279Z,4.35
2023-01-19T22:30:46.370Z,4.38
2023-01-19T22:33:16.392Z,4.36
2023-01-19T22:35:46.482Z,4.35
2023-01-19T22:38:19.155Z,4.37
2023-01-19T22:40:49.174Z,4.46
2023-01-19T22:43:19.151Z,4.47
2023-01-19T22:45:49.104Z,4.46
2023-01-19T22:48:20.179Z,4.49
2023-01-19T22:50:50.345Z,4.50
2023-01-19T22:53:22.908Z,4.43
2023-01-19T22:55:52.848Z,4.33
2023-01-19T22:58:23.006Z,4.33
2023-01-19T23:00:53.110Z,4.34
2023-01-19T23:03:23.147Z,4.38
2023-01-19T23:05:53.151Z,4.43
2023-01-19T23:08:25.896Z,4.47
2023-01-19T23:10:55.837Z,4.39
2023-01-19T23:13:25.892Z,4.38
2023-01-19T23:15:55.960Z,4.35
2023-01-19T23:18:26.133Z,4.37
2023-01-19T23:20:56.151Z,4.43
2023-01-19T23:23:29.028Z,4.44
2023-01-19T23:26:02.708Z,4.46
2023-01-19T23:28:34.135Z,4.53
2023-01-19T23:31:04.352Z,4.58
2023-01-19T23:33:34.406Z,4.57
2023-01-19T23:36:04.615Z,4.58
2023-01-19T23:38:37.296Z,4.54
2023-01-19T23:41:07.637Z,4.51
2023-01-19T23:43:37.673Z,4.53
2023-01-19T23:46:09.067Z,4.58
2023-01-19T23:48:39.350Z,4.63
2023-01-19T23:51:10.407Z,4.70
2023-01-19T23:53:43.281Z,4.75
2023-01-19T23:56:14.794Z,4.68
2023-01-19T23:58:45.224Z,4.64
